Time;durP1;ratioP1;P1;durP2;ratioP2;P2;SDS_P1;SDS_P2;PMS_P1;PMS_P2;Temp;Humidity;BMP_temperature;BMP_pressure;BME280_temperature;BME280_humidity;BME280_pressure;Samples;Min_cycle;Max_cycle;Signal;HPM_P1;HPM_P2
2023/02/15 00:01:05;;;;;;;;;;;;;;;1.07;79.89;99466.66;5078833;28;19931;-62
2023/02/15 00:03:33;;;;;;;;;;;;;;;1.13;79.44;99473.03;5078826;28;19931;-61
2023/02/15 00:06:02;;;;;;;;;;;;;;;1.00;79.86;99468.53;5085982;28;19931;-59
2023/02/15 00:08:30;;;;;;;;;;;;;;;1.01;80.18;99462.13;5097316;28;19924;-58
2023/02/15 00:11:06;;;;;;;;;;;;;;;0.82;80.37;99461.19;5081148;28;19932;-64
2023/02/15 00:19:22;;;;;;;;;;;;;;;0.66;81.75;99454.44;5066844;28;19929;-58
2023/02/15 00:21:53;;;;;;;;;;;;;;;0.75;81.05;99457.72;5058200;28;20345;-58
2023/02/15 00:24:21;;;;;;;;;;;;;;;0.83;80.82;99441.41;5061088;28;19925;-58
2023/02/15 00:26:50;;;;;;;;;;;;;;;0.95;80.15;99453.09;5062783;28;19925;-61
2023/02/15 00:29:18;;;;;;;;;;;;;;;0.78;80.49;99446.56;5056483;28;19925;-59
2023/02/15 00:31:48;;;;;;;;;;;;;;;0.99;80.26;99456.19;5057325;28;19933;-58
2023/02/15 00:34:16;;;;;;;;;;;;;;;1.02;79.48;99459.28;5060114;28;20006;-58
2023/02/15 00:36:45;;;;;;;;;;;;;;;1.01;79.64;99452.28;5065884;28;20056;-59
2023/02/15 00:39:16;;;;;;;;;;;;;;;1.05;79.86;99450.81;5058158;28;19931;-57
2023/02/15 00:41:44;;;;;;;;;;;;;;;1.01;79.50;99452.28;5089187;28;20027;-58
2023/02/15 00:44:12;;;;;;;;;;;;;;;0.94;79.83;99456.81;5069046;28;19948;-58
2023/02/15 00:46:42;;;;;;;;;;;;;;;1.01;79.67;99449.59;5053734;28;20302;-58
2023/02/15 00:49:10;;;;;;;;;;;;;;;0.95;79.42;99447.75;5063515;28;19924;-59
2023/02/15 00:51:39;;;;;;;;;;;;;;;0.98;79.37;99446.53;5061346;28;20377;-64
2023/02/15 00:54:06;;;;;;;;;;;;;;;0.98;79.58;99446.53;5056381;28;19958;-58
2023/02/15 00:56:36;;;;;;;;;;;;;;;0.90;79.64;99438.72;5053809;28;20282;-64
2023/02/15 00:59:06;;;;;;;;;;;;;;;0.89;79.27;99443.25;5090536;28;19959;-61
2023/02/15 01:04:25;;;;;;;;;;;;;;;0.80;80.23;99439.19;5016533;28;19964;-60
2023/02/15 01:06:53;;;;;;;;;;;;;;;0.80;80.24;99436.50;5018706;28;19960;-58
2023/02/15 01:09:22;;;;;;;;;;;;;;;1.03;79.46;99446.72;5026440;28;19966;-59
2023/02/15 01:11:52;;;;;;;;;;;;;;;0.97;78.93;99440.34;5056755;28;19929;-58
2023/02/15 01:14:20;;;;;;;;;;;;;;;0.82;79.68;99431.75;5013123;28;19926;-59
2023/02/15 01:16:48;;;;;;;;;;;;;;;0.92;79.05;99434.81;5047904;28;19929;-58
2023/02/15 01:19:16;;;;;;;;;;;;;;;1.00;79.08;99441.75;5020190;28;19929;-59
2023/02/15 01:21:44;;;;;;;;;;;;;;;0.96;78.40;99437.88;5024234;28;19925;-58
2023/02/15 01:24:12;;;;;;;;;;;;;;;0.93;78.88;99433.78;5015014;28;19963;-58
2023/02/15 01:26:41;;;;;;;;;;;;;;;0.90;78.71;99426.16;5068275;28;19928;-59
2023/02/15 01:29:10;;;;;;;;;;;;;;;0.85;78.78;99422.47;5024276;28;20173;-60
2023/02/15 01:32:04;;;;;;;;;;;;;;;0.92;78.10;99428.63;5026425;28;19924;-60
2023/02/15 01:34:32;;;;;;;;;;;;;;;1.05;77.95;99426.72;5075897;28;19928;-57
2023/02/15 01:37:00;;;;;;;;;;;;;;;0.91;78.24;99430.50;5045705;28;19979;-57
2023/02/15 01:39:29;;;;;;;;;;;;;;;0.95;77.82;99425.53;5043438;28;19947;-61
2023/02/15 01:41:57;;;;;;;;;;;;;;;0.94;78.04;99416.69;5041452;28;19926;-58
2023/02/15 01:44:44;;;;;;;;;;;;;;;0.91;78.15;99414.44;5042954;28;19986;-61
2023/02/15 01:47:40;;;;;;;;;;;;;;;0.73;78.81;99408.94;5034889;28;20082;-60
2023/02/15 01:50:09;;;;;;;;;;;;;;;0.87;78.19;99407.88;5061983;28;20066;-58
2023/02/15 01:52:38;;;;;;;;;;;;;;;0.87;77.88;99397.16;5042795;28;19942;-57
2023/02/15 01:55:06;;;;;;;;;;;;;;;0.93;77.66;99395.50;5053574;28;19936;-58
2023/02/15 01:57:35;;;;;;;;;;;;;;;0.82;77.77;99399.66;5034799;28;19948;-57
2023/02/15 02:00:16;;;;;;;;;;;;;;;0.70;77.83;99374.59;5041731;28;19955;-66
2023/02/15 02:02:50;;;;;;;;;;;;;;;0.87;77.82;99391.81;5042824;28;19985;-57
2023/02/15 02:05:18;;;;;;;;;;;;;;;0.71;78.10;99386.94;5078717;28;19969;-59
2023/02/15 02:07:47;;;;;;;;;;;;;;;0.61;78.49;99384.69;5078872;28;20071;-57
2023/02/15 02:10:16;;;;;;;;;;;;;;;0.61;78.54;99375.84;5058911;28;19924;-58
2023/02/15 02:12:44;;;;;;;;;;;;;;;0.69;77.98;99376.47;5066390;28;19924;-57
2023/02/15 02:15:13;;;;;;;;;;;;;;;0.32;79.02;99377.16;5054095;28;20286;-58
2023/02/15 02:17:43;;;;;;;;;;;;;;;0.54;78.93;99375.06;5059964;28;19935;-57
2023/02/15 02:20:27;;;;;;;;;;;;;;;0.31;78.56;99376.34;5062895;28;19935;-59
2023/02/15 02:23:09;;;;;;;;;;;;;;;0.21;79.52;99376.78;5090323;28;20305;-58
2023/02/15 02:25:58;;;;;;;;;;;;;;;0.09;79.77;99382.94;5083583;28;19970;-57
2023/02/15 02:28:36;;;;;;;;;;;;;;;0.15;80.26;99382.13;5063639;28;19951;-67
2023/02/15 02:34:17;;;;;;;;;;;;;;;0.18;79.91;99376.38;5074639;28;20293;-57
2023/02/15 02:36:47;;;;;;;;;;;;;;;0.24;79.84;99376.34;5065123;28;19971;-58
2023/02/15 02:39:21;;;;;;;;;;;;;;;0.27;79.84;99369.78;5086460;28;19928;-57
2023/02/15 02:41:53;;;;;;;;;;;;;;;0.51;79.25;99366.41;5056132;28;20285;-58
2023/02/15 02:44:23;;;;;;;;;;;;;;;0.59;78.84;99369.91;5089158;28;19923;-59
2023/02/15 02:46:52;;;;;;;;;;;;;;;0.43;78.28;99365.84;5064167;28;20266;-59
2023/02/15 02:49:31;;;;;;;;;;;;;;;0.32;78.71;99361.97;5085615;28;19932;-59
2023/02/15 02:52:00;;;;;;;;;;;;;;;0.34;78.68;99364.41;5054934;28;19924;-58
2023/02/15 02:54:28;;;;;;;;;;;;;;;0.19;79.33;99361.97;5080666;28;20304;-59
2023/02/15 02:57:21;;;;;;;;;;;;;;;0.39;79.15;99351.25;5060334;28;20035;-57
2023/02/15 02:59:49;;;;;;;;;;;;;;;0.51;78.53;99360.25;5061815;28;19928;-57
2023/02/15 03:02:21;;;;;;;;;;;;;;;0.33;78.43;99358.25;5090467;28;19927;-59
2023/02/15 03:05:16;;;;;;;;;;;;;;;0.44;78.35;99360.28;5081783;28;19924;-58
2023/02/15 03:07:47;;;;;;;;;;;;;;;0.50;78.57;99358.59;5079877;28;19944;-59
2023/02/15 03:10:15;;;;;;;;;;;;;;;0.52;77.95;99357.34;5084918;28;19924;-58
2023/02/15 03:12:43;;;;;;;;;;;;;;;0.39;77.80;99346.72;5083452;28;20384;-59
2023/02/15 03:15:11;;;;;;;;;;;;;;;0.44;78.04;99352.25;5062269;28;19927;-58
2023/02/15 03:17:49;;;;;;;;;;;;;;;0.11;79.27;99351.53;5072837;28;19943;-57
2023/02/15 03:20:42;;;;;;;;;;;;;;;0.16;79.50;99354.34;5068415;28;19948;-58
2023/02/15 03:23:12;;;;;;;;;;;;;;;0.24;79.14;99348.81;5079282;28;19924;-57
2023/02/15 03:25:41;;;;;;;;;;;;;;;0.13;78.76;99347.59;5091866;28;19924;-57
2023/02/15 03:28:11;;;;;;;;;;;;;;;-0.32;80.33;99336.75;5096583;27;20015;-57
2023/02/15 03:30:39;;;;;;;;;;;;;;;-0.18;80.29;99342.09;5065888;28;19927;-58
2023/02/15 03:33:07;;;;;;;;;;;;;;;-0.21;80.36;99343.34;5086790;28;19974;-58
2023/02/15 03:35:37;;;;;;;;;;;;;;;-0.15;80.29;99349.69;5096561;28;19955;-60
2023/02/15 03:38:07;;;;;;;;;;;;;;;-0.11;80.19;99353.56;5077486;28;19948;-57
2023/02/15 03:43:23;;;;;;;;;;;;;;;0.02;79.88;99355.44;5088965;28;19931;-58
2023/02/15 03:45:55;;;;;;;;;;;;;;;0.21;79.64;99352.72;5082065;28;19928;-56
2023/02/15 03:48:24;;;;;;;;;;;;;;;0.27;78.76;99348.41;5085860;28;19931;-57
2023/02/15 03:53:40;;;;;;;;;;;;;;;0.26;78.86;99352.06;5076637;28;20009;-57
2023/02/15 03:56:13;;;;;;;;;;;;;;;0.36;78.04;99351.66;5070597;28;20312;-60
2023/02/15 04:04:22;;;;;;;;;;;;;;;0.23;77.59;99361.34;5089116;28;19951;-57
2023/02/15 04:06:52;;;;;;;;;;;;;;;0.09;78.13;99366.91;5069912;28;19967;-58
2023/02/15 04:12:10;;;;;;;;;;;;;;;0.14;78.25;99367.94;5088366;28;19930;-57
2023/02/15 04:17:24;;;;;;;;;;;;;;;-0.04;78.33;99363.25;5079582;28;20384;-57
2023/02/15 04:25:23;;;;;;;;;;;;;;;0.05;77.81;99369.19;5075704;28;19947;-58
2023/02/15 04:27:54;;;;;;;;;;;;;;;-0.05;77.93;99366.13;5074554;28;21887;-60
2023/02/15 04:30:24;;;;;;;;;;;;;;;0.13;77.45;99370.81;5070290;27;20374;-57
2023/02/15 04:32:52;;;;;;;;;;;;;;;0.04;77.26;99375.56;5061121;28;19933;-58
2023/02/15 04:35:20;;;;;;;;;;;;;;;-0.10;77.07;99382.78;5061491;28;19931;-58
2023/02/15 04:37:48;;;;;;;;;;;;;;;-0.03;77.79;99385.44;5055831;28;19971;-57
2023/02/15 04:40:16;;;;;;;;;;;;;;;0.02;77.08;99382.16;5067066;28;19928;-58
2023/02/15 04:42:48;;;;;;;;;;;;;;;-0.16;77.47;99378.25;5059872;28;19970;-57
2023/02/15 04:45:17;;;;;;;;;;;;;;;-0.09;78.02;99381.75;5065450;28;19968;-57
2023/02/15 04:47:45;;;;;;;;;;;;;;;-0.08;77.69;99382.56;5064740;28;20400;-58
2023/02/15 04:50:17;;;;;;;;;;;;;;;-0.12;77.31;99378.66;5038304;28;19925;-58
2023/02/15 04:52:45;;;;;;;;;;;;;;;-0.16;77.48;99370.25;5065311;28;20365;-58
2023/02/15 04:55:13;;;;;;;;;;;;;;;-0.30;77.83;99368.59;5060848;28;19932;-57
2023/02/15 04:57:41;;;;;;;;;;;;;;;-0.22;78.22;99360.34;5059576;28;19929;-58
2023/02/15 05:00:10;;;;;;;;;;;;;;;-0.26;78.29;99361.81;5056970;28;20013;-58
2023/02/15 05:02:39;;;;;;;;;;;;;;;-0.25;78.37;99368.81;5068028;28;19932;-58
2023/02/15 05:05:09;;;;;;;;;;;;;;;-0.35;78.19;99363.03;5061337;28;20286;-57
2023/02/15 05:07:37;;;;;;;;;;;;;;;-0.52;78.69;99370.63;5063623;28;19960;-59
2023/02/15 05:10:05;;;;;;;;;;;;;;;-0.64;78.96;99362.41;5059198;28;20543;-57
2023/02/15 05:12:33;;;;;;;;;;;;;;;-0.76;79.37;99360.53;5045453;28;20336;-58
2023/02/15 05:15:02;;;;;;;;;;;;;;;-0.54;79.25;99348.66;5069541;28;19939;-57
2023/02/15 05:17:30;;;;;;;;;;;;;;;-0.57;79.69;99346.41;5069102;28;19931;-64
2023/02/15 05:19:59;;;;;;;;;;;;;;;-0.52;79.33;99340.44;5056964;28;20426;-57
2023/02/15 05:22:29;;;;;;;;;;;;;;;-0.43;79.23;99333.88;5069337;28;20389;-57
2023/02/15 05:28:22;;;;;;;;;;;;;;;-0.57;79.44;99325.88;5047003;28;19940;-60
2023/02/15 05:30:51;;;;;;;;;;;;;;;-0.64;79.32;99335.72;5057810;28;19925;-60
2023/02/15 05:33:19;;;;;;;;;;;;;;;-0.61;79.77;99319.28;5059623;28;19936;-57
2023/02/15 05:35:49;;;;;;;;;;;;;;;-0.46;79.42;99331.63;5075153;28;19925;-58
2023/02/15 05:38:17;;;;;;;;;;;;;;;-0.12;78.73;99338.59;5056189;28;19924;-58
2023/02/15 05:40:45;;;;;;;;;;;;;;;-0.11;78.22;99338.38;5063046;28;19928;-59
2023/02/15 05:43:14;;;;;;;;;;;;;;;-0.26;78.18;99337.78;5059313;28;20427;-57
2023/02/15 05:45:44;;;;;;;;;;;;;;;-0.35;78.29;99341.69;5054354;28;19957;-58
2023/02/15 05:48:13;;;;;;;;;;;;;;;-0.20;77.88;99336.97;5061414;28;19933;-58
2023/02/15 05:50:41;;;;;;;;;;;;;;;0.00;77.61;99339.63;5063670;28;19932;-58
2023/02/15 05:53:10;;;;;;;;;;;;;;;-0.03;77.13;99332.81;5035615;28;20382;-60
2023/02/15 05:56:03;;;;;;;;;;;;;;;-0.09;77.03;99335.50;5064759;28;19924;-57
2023/02/15 05:58:35;;;;;;;;;;;;;;;-0.09;77.15;99332.84;5045786;28;19925;-56
2023/02/15 06:01:08;;;;;;;;;;;;;;;-0.10;76.91;99334.69;5054855;28;19940;-57
2023/02/15 06:03:36;;;;;;;;;;;;;;;-0.37;77.76;99335.75;5057567;28;19928;-56
2023/02/15 06:06:07;;;;;;;;;;;;;;;-0.24;77.63;99327.72;5068845;28;19936;-57
2023/02/15 06:08:36;;;;;;;;;;;;;;;-0.22;77.87;99325.63;5041320;28;19932;-58
2023/02/15 06:11:04;;;;;;;;;;;;;;;-0.14;77.65;99325.44;5039867;28;19935;-57
2023/02/15 06:13:33;;;;;;;;;;;;;;;-0.15;77.24;99323.00;5070388;28;19925;-56
2023/02/15 06:16:28;;;;;;;;;;;;;;;-0.17;77.20;99319.69;5058708;28;20171;-63
2023/02/15 06:18:58;;;;;;;;;;;;;;;-0.14;76.92;99309.41;5063536;28;19925;-58
2023/02/15 06:21:27;;;;;;;;;;;;;;;-0.07;76.41;99317.41;5064197;28;19924;-56
2023/02/15 06:24:20;;;;;;;;;;;;;;;-0.21;77.29;99315.78;5060156;28;19932;-57
2023/02/15 06:26:49;;;;;;;;;;;;;;;-0.63;78.68;99326.69;5061159;28;19928;-57
2023/02/15 06:29:17;;;;;;;;;;;;;;;-0.43;78.27;99331.19;5058959;28;19936;-60
2023/02/15 06:31:46;;;;;;;;;;;;;;;-0.48;77.79;99331.84;5056464;28;19929;-56
2023/02/15 06:34:14;;;;;;;;;;;;;;;-0.61;78.54;99334.47;5064358;28;19932;-57
2023/02/15 06:36:42;;;;;;;;;;;;;;;-0.40;78.24;99344.97;5083106;28;19929;-61
2023/02/15 06:39:10;;;;;;;;;;;;;;;0.03;76.92;99349.06;5052350;28;19932;-57
2023/02/15 06:41:38;;;;;;;;;;;;;;;-0.23;77.29;99342.69;5073832;28;19986;-57
2023/02/15 06:44:07;;;;;;;;;;;;;;;-0.12;77.20;99343.91;5073636;28;19955;-61
2023/02/15 06:46:35;;;;;;;;;;;;;;;-0.18;77.07;99342.09;5064890;28;19928;-57
2023/02/15 06:49:03;;;;;;;;;;;;;;;-0.13;76.56;99336.94;5073664;28;19925;-57
2023/02/15 06:51:31;;;;;;;;;;;;;;;0.12;76.19;99340.63;5081804;28;19925;-57
2023/02/15 06:53:59;;;;;;;;;;;;;;;0.06;75.97;99345.97;5079359;28;20377;-56
2023/02/15 06:56:27;;;;;;;;;;;;;;;0.10;75.55;99355.19;5072556;28;19932;-57
2023/02/15 06:58:56;;;;;;;;;;;;;;;0.03;75.71;99357.88;5075352;28;19928;-57
2023/02/15 07:01:26;;;;;;;;;;;;;;;-0.04;75.45;99352.56;5074613;28;20374;-56
2023/02/15 07:03:54;;;;;;;;;;;;;;;-0.39;76.20;99353.78;5075343;28;19977;-60
2023/02/15 07:06:23;;;;;;;;;;;;;;;-0.43;76.98;99358.72;5079971;28;19928;-56
2023/02/15 07:08:51;;;;;;;;;;;;;;;-0.47;77.15;99344.16;5086935;28;19935;-64
2023/02/15 07:14:06;;;;;;;;;;;;;;;-0.04;76.39;99344.53;5066749;28;19947;-57
2023/02/15 07:17:06;;;;;;;;;;;;;;;0.08;75.96;99343.91;5064318;28;19986;-58
2023/02/15 07:19:56;;;;;;;;;;;;;;;0.20;75.60;99342.22;5068004;28;19928;-57
2023/02/15 07:22:28;;;;;;;;;;;;;;;0.35;74.58;99344.66;5062620;28;19960;-56
2023/02/15 07:24:56;;;;;;;;;;;;;;;0.14;74.64;99343.06;5060501;28;19933;-59
2023/02/15 07:27:25;;;;;;;;;;;;;;;0.18;74.44;99342.44;5069199;28;19931;-56
2023/02/15 07:29:52;;;;;;;;;;;;;;;0.33;74.07;99344.88;5066445;28;20377;-57
2023/02/15 07:32:21;;;;;;;;;;;;;;;0.19;74.38;99335.25;5069410;28;19932;-57
2023/02/15 07:34:49;;;;;;;;;;;;;;;0.23;74.00;99344.50;5064214;28;19928;-57
2023/02/15 07:37:18;;;;;;;;;;;;;;;0.16;74.04;99344.53;5066281;28;20285;-57
2023/02/15 07:39:46;;;;;;;;;;;;;;;0.17;73.94;99337.31;5056434;28;19944;-58
2023/02/15 07:42:14;;;;;;;;;;;;;;;0.16;74.21;99330.31;5045212;28;19925;-57
2023/02/15 07:44:42;;;;;;;;;;;;;;;0.19;74.84;99340.59;5071919;28;19932;-57
2023/02/15 07:50:02;;;;;;;;;;;;;;;0.31;73.84;99338.09;5050175;28;19932;-57
2023/02/15 07:52:32;;;;;;;;;;;;;;;0.31;74.24;99343.44;5064815;28;19931;-57
2023/02/15 07:54:59;;;;;;;;;;;;;;;0.37;73.74;99339.91;5049467;28;19993;-57
2023/02/15 07:57:29;;;;;;;;;;;;;;;0.34;73.61;99332.34;5064913;28;19967;-63
2023/02/15 07:59:57;;;;;;;;;;;;;;;0.45;73.59;99331.69;5055008;28;19928;-57
2023/02/15 08:05:19;;;;;;;;;;;;;;;0.37;73.56;99330.03;5061544;28;19928;-58
2023/02/15 08:07:50;;;;;;;;;;;;;;;0.39;73.66;99324.50;5065759;28;19929;-57
2023/02/15 08:11:25;;;;;;;;;;;;;;;0.18;74.18;99329.09;5056336;28;20393;-61
2023/02/15 08:13:13;;;;;;;;;;;;;;;0.03;74.09;99330.34;5067819;28;20374;-58
2023/02/15 08:15:41;;;;;;;;;;;;;;;0.20;74.34;99332.34;5046767;28;20341;-59
2023/02/15 08:41:38;;;;;;;;;;;;;;;0.76;72.83;99320.25;5087041;28;20437;-61
2023/02/15 08:44:07;;;;;;;;;;;;;;;0.71;72.22;99323.56;5083692;28;19931;-57
2023/02/15 08:46:36;;;;;;;;;;;;;;;0.67;72.64;99332.22;5080871;28;19927;-58
2023/02/15 08:49:04;;;;;;;;;;;;;;;0.74;72.32;99328.47;5082847;28;19924;-58
2023/02/15 08:51:32;;;;;;;;;;;;;;;0.75;72.52;99338.16;5075447;28;20354;-57
2023/02/15 08:54:02;;;;;;;;;;;;;;;0.82;72.34;99340.78;5084677;28;19927;-63
2023/02/15 08:56:31;;;;;;;;;;;;;;;0.95;71.86;99346.06;5085083;28;19943;-60
2023/02/15 08:58:59;;;;;;;;;;;;;;;1.16;71.54;99341.44;5095826;28;20090;-57
2023/02/15 09:01:29;;;;;;;;;;;;;;;1.00;71.67;99327.50;5068819;28;19932;-59
2023/02/15 09:03:57;;;;;;;;;;;;;;;0.99;71.71;99341.94;5085935;28;20322;-58
2023/02/15 09:06:25;;;;;;;;;;;;;;;1.00;72.04;99346.25;5089867;28;19924;-59
2023/02/15 09:08:53;;;;;;;;;;;;;;;0.91;72.20;99334.16;5092279;28;19920;-59
2023/02/15 09:11:23;;;;;;;;;;;;;;;1.15;71.96;99335.25;5087408;28;20387;-57
2023/02/15 09:13:53;;;;;;;;;;;;;;;1.10;71.70;99339.63;5073500;28;20272;-58
2023/02/15 09:16:21;;;;;;;;;;;;;;;1.05;72.20;99335.72;5087477;28;19920;-62
2023/02/15 09:26:31;;;;;;;;;;;;;;;0.85;72.07;99326.16;5075683;28;19923;-57
2023/02/15 09:29:01;;;;;;;;;;;;;;;0.87;72.76;99324.91;5075047;28;19924;-62
2023/02/15 09:34:24;;;;;;;;;;;;;;;0.94;72.47;99331.06;5070671;28;19920;-57
2023/02/15 09:36:53;;;;;;;;;;;;;;;0.60;72.20;99332.25;5069283;28;19924;-57
2023/02/15 09:39:22;;;;;;;;;;;;;;;0.70;72.65;99332.63;5099362;28;20245;-57
2023/02/15 09:42:10;;;;;;;;;;;;;;;0.86;72.81;99336.66;5082455;28;19924;-58
2023/02/15 09:48:22;;;;;;;;;;;;;;;0.75;72.49;99334.66;5082661;28;19938;-56
2023/02/15 09:50:54;;;;;;;;;;;;;;;1.08;72.46;99344.38;5077664;28;20311;-57
2023/02/15 09:53:27;;;;;;;;;;;;;;;0.93;72.39;99348.16;5083170;28;19920;-57
2023/02/15 09:56:21;;;;;;;;;;;;;;;1.00;71.79;99346.25;5096866;28;19920;-56
2023/02/15 09:58:52;;;;;;;;;;;;;;;1.10;72.00;99348.47;5078567;28;20337;-56
2023/02/15 10:01:22;;;;;;;;;;;;;;;1.31;71.84;99352.66;5085419;28;20019;-57
2023/02/15 10:03:55;;;;;;;;;;;;;;;1.66;70.56;99345.00;5070148;28;20013;-57
2023/02/15 10:06:30;;;;;;;;;;;;;;;1.69;69.77;99346.41;5092944;28;19928;-57
2023/02/15 10:09:02;;;;;;;;;;;;;;;1.74;69.77;99339.34;5070484;28;19927;-56
2023/02/15 10:11:41;;;;;;;;;;;;;;;1.81;69.21;99342.81;5069714;28;19932;-61
2023/02/15 10:14:14;;;;;;;;;;;;;;;1.24;70.45;99346.53;5088799;28;20428;-56
2023/02/15 10:16:43;;;;;;;;;;;;;;;1.37;71.10;99349.13;5089951;28;19931;-56
2023/02/15 10:19:12;;;;;;;;;;;;;;;1.80;70.21;99334.97;5097243;28;20271;-57
2023/02/15 10:21:43;;;;;;;;;;;;;;;1.73;70.53;99342.25;5096571;28;19934;-64
2023/02/15 10:24:27;;;;;;;;;;;;;;;1.83;70.19;99332.69;5106328;27;20388;-57
2023/02/15 10:29:52;;;;;;;;;;;;;;;2.17;68.32;99329.69;5075934;28;19920;-57
2023/02/15 10:32:23;;;;;;;;;;;;;;;2.27;67.98;99316.59;5083491;28;19990;-57
2023/02/15 10:34:52;;;;;;;;;;;;;;;2.50;67.58;99306.00;5091953;28;19975;-58
2023/02/15 10:37:35;;;;;;;;;;;;;;;2.57;67.53;99301.41;5085072;28;19920;-57
2023/02/15 10:40:05;;;;;;;;;;;;;;;2.42;67.59;99292.09;5071273;28;19920;-60
2023/02/15 10:42:36;;;;;;;;;;;;;;;2.02;68.43;99297.88;5088614;28;19924;-57
2023/02/15 10:45:09;;;;;;;;;;;;;;;2.04;68.37;99299.31;5064519;28;19933;-64
2023/02/15 10:47:52;;;;;;;;;;;;;;;2.21;68.90;99291.50;5060619;28;19955;-60
2023/02/15 10:50:38;;;;;;;;;;;;;;;2.20;68.66;99289.84;5067735;28;20662;-57
2023/02/15 10:53:10;;;;;;;;;;;;;;;2.59;68.42;99285.88;5063160;28;20161;-58
2023/02/15 10:58:39;;;;;;;;;;;;;;;2.92;66.50;99275.75;5061843;28;20424;-62
2023/02/15 11:01:12;;;;;;;;;;;;;;;2.44;67.02;99269.34;5057482;28;20023;-57
2023/02/15 11:03:47;;;;;;;;;;;;;;;2.79;67.33;99266.03;5064992;28;19978;-58
2023/02/15 11:06:16;;;;;;;;;;;;;;;2.98;66.26;99254.16;5058047;28;19933;-57
2023/02/15 11:08:45;;;;;;;;;;;;;;;3.27;66.00;99255.19;5064801;28;19931;-58
2023/02/15 11:11:13;;;;;;;;;;;;;;;3.56;65.27;99249.97;5062891;28;19947;-56
2023/02/15 11:16:39;;;;;;;;;;;;;;;2.83;65.76;99243.88;5049622;28;19956;-56
2023/02/15 11:19:09;;;;;;;;;;;;;;;2.36;67.51;99242.84;5098325;28;19927;-56
2023/02/15 11:24:33;;;;;;;;;;;;;;;2.13;68.75;99256.94;5064828;28;20392;-56
2023/02/15 11:27:02;;;;;;;;;;;;;;;2.27;68.89;99262.97;5065829;28;19927;-56
2023/02/15 11:29:32;;;;;;;;;;;;;;;2.42;68.53;99250.00;5062219;28;20375;-56
2023/02/15 11:32:04;;;;;;;;;;;;;;;2.46;68.20;99245.00;5055400;28;20378;-56
2023/02/15 11:34:33;;;;;;;;;;;;;;;2.34;68.42;99247.59;5069837;28;19994;-68
2023/02/15 11:37:03;;;;;;;;;;;;;;;2.38;68.90;99230.03;5065806;28;20253;-56
2023/02/15 11:39:31;;;;;;;;;;;;;;;2.69;68.02;99234.38;5067370;28;19925;-56
2023/02/15 11:42:00;;;;;;;;;;;;;;;2.55;67.84;99235.56;5061083;28;19921;-56
2023/02/15 11:44:29;;;;;;;;;;;;;;;2.50;68.96;99230.06;5064796;28;19920;-57
2023/02/15 11:46:57;;;;;;;;;;;;;;;2.48;68.46;99227.63;5050793;28;19921;-57
2023/02/15 11:49:28;;;;;;;;;;;;;;;2.56;68.67;99219.28;5071059;28;20298;-56
2023/02/15 11:51:56;;;;;;;;;;;;;;;2.69;68.22;99225.50;5059544;28;20022;-56
2023/02/15 11:54:27;;;;;;;;;;;;;;;3.15;67.22;99222.94;5054941;28;19997;-57
2023/02/15 11:56:55;;;;;;;;;;;;;;;3.21;66.81;99223.06;5067126;28;19928;-57
2023/02/15 11:59:26;;;;;;;;;;;;;;;3.20;66.52;99219.56;5062369;28;19933;-60
2023/02/15 12:01:54;;;;;;;;;;;;;;;3.41;66.44;99226.25;5054073;28;19920;-58
2023/02/15 12:04:23;;;;;;;;;;;;;;;3.44;66.58;99223.09;5091506;28;20379;-57
2023/02/15 12:06:54;;;;;;;;;;;;;;;3.51;65.33;99229.16;5067933;28;19935;-57
2023/02/15 12:09:31;;;;;;;;;;;;;;;3.70;65.51;99212.94;5063649;28;19997;-59
2023/02/15 12:12:13;;;;;;;;;;;;;;;3.69;64.91;99214.81;5067240;28;19933;-57
2023/02/15 12:14:47;;;;;;;;;;;;;;;3.82;65.35;99205.66;5070172;28;19927;-57
2023/02/15 12:17:16;;;;;;;;;;;;;;;4.12;64.29;99200.13;5069683;28;19920;-56
2023/02/15 12:19:45;;;;;;;;;;;;;;;3.97;64.09;99203.31;5066507;28;20353;-61
2023/02/15 12:22:19;;;;;;;;;;;;;;;4.05;63.48;99200.28;5071072;28;19924;-63
2023/02/15 12:25:21;;;;;;;;;;;;;;;4.24;63.28;99197.41;5067831;28;19920;-57
2023/02/15 12:28:17;;;;;;;;;;;;;;;4.23;64.04;99195.78;5060446;28;19944;-58
2023/02/15 12:30:44;;;;;;;;;;;;;;;4.56;62.67;99192.38;5063966;28;19925;-56
2023/02/15 12:33:15;;;;;;;;;;;;;;;4.15;63.32;99183.50;5060680;28;20377;-56
2023/02/15 12:35:43;;;;;;;;;;;;;;;4.18;63.22;99175.78;5064143;28;19925;-57
2023/02/15 12:38:22;;;;;;;;;;;;;;;4.10;63.05;99170.81;5064295;28;19920;-57
2023/02/15 12:40:57;;;;;;;;;;;;;;;4.36;63.14;99179.34;5063106;28;19920;-57
2023/02/15 12:43:26;;;;;;;;;;;;;;;4.64;62.32;99173.97;5060563;28;20035;-58
2023/02/15 12:45:54;;;;;;;;;;;;;;;4.46;62.55;99158.81;5060448;28;19921;-57
2023/02/15 12:48:24;;;;;;;;;;;;;;;4.57;62.39;99165.22;5061942;28;19935;-57
2023/02/15 12:50:55;;;;;;;;;;;;;;;4.83;61.85;99162.97;5052524;28;19956;-57
2023/02/15 12:53:31;;;;;;;;;;;;;;;4.89;61.88;99156.63;5062896;28;20567;-57
2023/02/15 12:56:03;;;;;;;;;;;;;;;4.97;61.44;99151.66;5066612;28;19927;-61
2023/02/15 12:58:32;;;;;;;;;;;;;;;4.93;60.51;99155.06;5095989;28;19932;-57
2023/02/15 13:01:03;;;;;;;;;;;;;;;5.00;60.98;99148.47;5059579;28;20357;-57
2023/02/15 13:03:32;;;;;;;;;;;;;;;5.04;60.66;99132.63;5067282;28;19921;-57
2023/02/15 13:06:01;;;;;;;;;;;;;;;4.67;61.26;99153.81;5086556;28;19927;-57
2023/02/15 13:08:32;;;;;;;;;;;;;;;5.03;61.37;99154.44;5062191;28;19924;-57
2023/02/15 13:11:01;;;;;;;;;;;;;;;4.96;60.99;99146.53;5067537;28;19929;-57
2023/02/15 13:13:30;;;;;;;;;;;;;;;4.93;61.05;99147.00;5066918;28;19921;-69
2023/02/15 13:15:59;;;;;;;;;;;;;;;5.06;61.38;99140.47;5061465;28;19929;-57
2023/02/15 13:18:30;;;;;;;;;;;;;;;5.16;60.56;99144.13;5066179;28;19959;-62
2023/02/15 13:20:59;;;;;;;;;;;;;;;5.01;60.97;99149.31;5063071;28;20254;-57
2023/02/15 13:23:28;;;;;;;;;;;;;;;5.19;60.94;99145.53;5064857;28;19982;-57
2023/02/15 13:25:59;;;;;;;;;;;;;;;5.10;61.15;99142.44;5069764;28;19920;-57
2023/02/15 13:28:28;;;;;;;;;;;;;;;5.30;60.47;99125.75;5060631;28;19925;-57
2023/02/15 13:30:56;;;;;;;;;;;;;;;5.02;60.96;99126.69;5060207;28;19920;-57
2023/02/15 13:33:26;;;;;;;;;;;;;;;5.17;60.49;99131.50;5060918;28;19928;-56
2023/02/15 13:36:00;;;;;;;;;;;;;;;5.02;61.20;99126.69;5054548;28;19927;-57
2023/02/15 13:38:43;;;;;;;;;;;;;;;5.26;61.32;99125.44;5059438;28;19957;-68
2023/02/15 13:41:14;;;;;;;;;;;;;;;5.09;61.40;99124.63;5061056;28;19928;-58
2023/02/15 13:43:44;;;;;;;;;;;;;;;4.92;61.50;99127.34;5065037;28;19921;-56
2023/02/15 13:46:20;;;;;;;;;;;;;;;4.71;62.21;99128.06;5059609;28;19962;-57
2023/02/15 13:48:51;;;;;;;;;;;;;;;4.79;61.99;99124.94;5063195;28;19920;-57
2023/02/15 13:51:22;;;;;;;;;;;;;;;4.89;61.85;99127.81;5066743;28;19938;-56
2023/02/15 13:54:02;;;;;;;;;;;;;;;5.11;62.10;99137.84;5062900;28;19987;-58
2023/02/15 13:56:36;;;;;;;;;;;;;;;5.19;61.60;99135.56;5056074;28;20333;-57
2023/02/15 13:59:18;;;;;;;;;;;;;;;5.33;60.84;99140.63;5061245;28;19959;-57
2023/02/15 14:01:47;;;;;;;;;;;;;;;5.26;60.96;99130.81;5053700;28;20019;-58
2023/02/15 14:04:27;;;;;;;;;;;;;;;5.15;61.65;99131.72;5097572;28;21326;-57
2023/02/15 14:07:03;;;;;;;;;;;;;;;5.38;61.47;99130.75;5064741;28;19930;-57
2023/02/15 14:09:35;;;;;;;;;;;;;;;5.49;61.04;99129.00;5094582;28;19931;-58
2023/02/15 14:12:09;;;;;;;;;;;;;;;5.49;61.13;99129.81;5055916;28;19989;-57
2023/02/15 14:14:44;;;;;;;;;;;;;;;5.28;61.45;99133.28;5065170;28;19942;-58
2023/02/15 14:17:13;;;;;;;;;;;;;;;5.46;60.54;99124.91;5050324;28;19959;-57
2023/02/15 14:19:49;;;;;;;;;;;;;;;5.45;60.43;99117.09;5055304;28;19954;-56
2023/02/15 14:22:41;;;;;;;;;;;;;;;5.39;61.22;99124.28;5062971;28;20387;-58
2023/02/15 14:25:19;;;;;;;;;;;;;;;5.34;60.83;99123.41;5063867;28;19952;-56
2023/02/15 14:27:53;;;;;;;;;;;;;;;5.46;60.16;99124.91;5059365;28;19939;-64
2023/02/15 14:30:23;;;;;;;;;;;;;;;5.57;61.19;99115.09;5055344;28;20398;-56
2023/02/15 14:32:52;;;;;;;;;;;;;;;5.60;60.23;99125.38;5064847;28;19939;-58
2023/02/15 14:35:46;;;;;;;;;;;;;;;5.54;60.68;99121.00;5062976;28;19935;-57
2023/02/15 14:38:14;;;;;;;;;;;;;;;5.37;60.71;99121.00;5064394;28;19970;-58
2023/02/15 14:41:01;;;;;;;;;;;;;;;5.39;61.00;99115.38;5060474;28;20304;-58
2023/02/15 14:43:34;;;;;;;;;;;;;;;5.54;60.68;99115.59;5067567;28;19939;-57
2023/02/15 14:46:04;;;;;;;;;;;;;;;5.31;60.69;99115.78;5058987;28;19966;-59
2023/02/15 14:48:34;;;;;;;;;;;;;;;5.31;60.96;99102.31;5066751;28;20399;-58
2023/02/15 14:51:02;;;;;;;;;;;;;;;5.11;61.56;99106.34;5055171;28;19939;-58
2023/02/15 14:53:38;;;;;;;;;;;;;;;5.07;61.79;99110.59;5069341;28;19961;-58